WetterOnline ( http://www.wetteronline.de )

Wetter aktuell Rostock

Aktuelles Wetter: Rostock-Warnemünde (10m)

6-stündlich | Neueste Meldungen
Ortszeit Temperatur Wetter
Sa, 23.06. 2:00 13.4° C bedeckt
Fr, 22.06. 20:00 15.1° C bedeckt
Fr, 22.06. 14:00 16.5° C fast wolkenlos
Fr, 22.06. 8:00 12.7° C bewölkt
Fr, 22.06. 2:00 12.7° C wolkig
Do, 21.06. 20:00 13.2° C leicht bewölkt
Do, 21.06. 14:00 15.3° C bewölkt
Do, 21.06. 8:00 14.6° C Sprühregen
Ortszeit Temperatur Wetter
Sa, 23.06. 2:10 13.5° C bedeckt
Sa, 23.06. 2:00 13.4° C bedeckt
Sa, 23.06. 1:40 13.5° C bedeckt
Sa, 23.06. 1:30 13.6° C bewölkt
Sa, 23.06. 1:20 13.6° C bewölkt
Sa, 23.06. 1:10 13.6° C bewölkt
Sa, 23.06. 1:00 13.8° C bedeckt
Sa, 23.06. 0:30 13.9° C bedeckt
Sa, 23.06. 0:00 14.1° C bedeckt
Fr, 22.06. 23:30 14.4° C bedeckt
Fr, 22.06. 23:00 14.3° C bedeckt
Ortszeit Relative Feuchte Sichtweite
Sa, 23.06. 2:00 71% 13 km
Fr, 22.06. 20:00 74% 15 km
Fr, 22.06. 14:00 66% 12 km
Fr, 22.06. 8:00 80% 40 km
Fr, 22.06. 2:00 77% 30 km
Do, 21.06. 20:00 74% 40 km
Do, 21.06. 14:00 73% 50 km
Do, 21.06. 8:00 94% 3.5 km
Ortszeit Relative Feuchte Sichtweite
Sa, 23.06. 2:10 70% -
Sa, 23.06. 2:00 71% 13 km
Sa, 23.06. 1:40 69% -
Sa, 23.06. 1:30 70% 13 km
Sa, 23.06. 1:20 70% -
Sa, 23.06. 1:10 70% -
Sa, 23.06. 1:00 70% 12 km
Sa, 23.06. 0:30 74% 11 km
Sa, 23.06. 0:00 70% 14 km
Fr, 22.06. 23:30 73% 17 km
Fr, 22.06. 23:00 73% 20 km
Ortszeit Niederschlagsmenge Niederschlagsart
Sa, 23.06. 2:00 0.1 l/m2 in 6 Std. Regen
Fr, 22.06. 20:00 0.1 l/m2 in 12 Std. Regen
Fr, 22.06. 14:00 0.1 l/m2 in 6 Std. Regen
Fr, 22.06. 8:00 11 l/m2 in 12 Std. Regen
Fr, 22.06. 2:00 10 l/m2 in 6 Std. Regenschauer
Do, 21.06. 20:00 15 l/m2 in 12 Std. Regenschauer
Do, 21.06. 14:00 6 l/m2 in 6 Std. Regen
Do, 21.06. 8:00 4 l/m2 in 12 Std. Regen
Ortszeit Niederschlagsmenge Niederschlagsart
Sa, 23.06. 2:10 keine Meldung -
Sa, 23.06. 2:00 0.0 l/m2 in 1 Std. Regen
Sa, 23.06. 1:40 keine Meldung -
Sa, 23.06. 1:30 0.0 l/m2 in 1 Std. -
Sa, 23.06. 1:20 keine Meldung -
Sa, 23.06. 1:10 keine Meldung -
Sa, 23.06. 1:00 0.1 l/m2 in 1 Std. Sprühregen
Sa, 23.06. 0:30 0.1 l/m2 in 1 Std. Schnee
Sa, 23.06. 0:00 0.1 l/m2 in 1 Std. Regen
Fr, 22.06. 23:30 0.1 l/m2 in 1 Std. Schneeregen
Fr, 22.06. 23:00 0.1 l/m2 in 1 Std. Regen
Ortszeit Stärke Spitze Richtung
km/h Bft. km/h Grad Sektor
Sa, 23.06. 2:00 54 7 72 300° NW
Fr, 22.06. 20:00 50 7 68 280° W
Fr, 22.06. 14:00 33 5 48 280° W
Fr, 22.06. 8:00 33 5 59 280° W
Fr, 22.06. 2:00 44 6 80 270° W
Do, 21.06. 20:00 35 5 89 280° W
Do, 21.06. 14:00 14 3 47 250° W
Do, 21.06. 8:00 40 6 50 320° NW
Ortszeit Stärke Spitze Richtung
km/h Bft. km/h Grad Sektor
Sa, 23.06. 2:10 54 7 - 300° NW
Sa, 23.06. 2:00 54 7 68 300° NW
Sa, 23.06. 1:40 56 7 - 300° NW
Sa, 23.06. 1:30 54 7 68 300° NW
Sa, 23.06. 1:20 54 7 - 300° NW
Sa, 23.06. 1:10 58 7 - 300° NW
Sa, 23.06. 1:00 58 7 72 290° W
Sa, 23.06. 0:30 54 7 68 300° NW
Sa, 23.06. 0:00 56 7 70 290° W
Fr, 22.06. 23:30 52 7 70 290° W
Fr, 22.06. 23:00 46 6 67 290° W
Ortszeit Untergrenze Bedeckung Gattung
total tief tief mittel hoch
Sa, 23.06. 2:00 1170 m 8/8 8/8 - - -
Fr, 22.06. 20:00 810 m 8/8 8/8 - - -
Fr, 22.06. 14:00 690 m 1/8 1/8 - - -
Fr, 22.06. 8:00 630 m 7/8 7/8 - - -
Fr, 22.06. 2:00 720 m 5/8 5/8 - - -
Do, 21.06. 20:00 1290 m 4/8 - - - -
Do, 21.06. 14:00 720 m 8/8 7/8 - - -
Do, 21.06. 8:00 150 m 7/8 7/8 - - -
Ortszeit Bedeckungsgrad in Achtel und Wolkenuntergrenze
Sa, 23.06. 2:10 7(1140m) 8(1320m)
Sa, 23.06. 2:00 8(1170m)
Sa, 23.06. 1:40 8(1200m)
Sa, 23.06. 1:30 7(1230m)
Sa, 23.06. 1:20 7(1230m)
Sa, 23.06. 1:10 7(1200m) 7(1440m)
Sa, 23.06. 1:00 1(750m) 8(1170m)
Sa, 23.06. 0:30 2(690m) 5(1080m) 8(1320m)
Sa, 23.06. 0:00 3(840m) 8(1260m)
Fr, 22.06. 23:30 3(690m) 4(930m) 8(1350m)
Fr, 22.06. 23:00 3(690m) 7(1110m) 8(1350m)
Ortszeit Luftdruck NN (hPa) Tendenz (hPa in 3 Std.)
Sa, 23.06. 2:00 1016 - 0,1
Fr, 22.06. 20:00 1016 + 0,2
Fr, 22.06. 14:00 1016 + 1,1
Fr, 22.06. 8:00 1013 + 0,7
Fr, 22.06. 2:00 1012 - 0,6
Do, 21.06. 20:00 1013 + 2,0
Do, 21.06. 14:00 1009 - 1,1
Do, 21.06. 8:00 1009 - 1,6
Ortszeit Luftdruck NN (hPa) Tendenz (hPa in 3 Std.)
Sa, 23.06. 2:10 1016 keine Meldung
Sa, 23.06. 2:00 1016 - 0,1
Sa, 23.06. 1:40 1016 keine Meldung
Sa, 23.06. 1:30 1016 - 0,1
Sa, 23.06. 1:20 1016 keine Meldung
Sa, 23.06. 1:10 1016 keine Meldung
Sa, 23.06. 1:00 1017 + 0,1
Sa, 23.06. 0:30 1017 + 0,2
Sa, 23.06. 0:00 1017 + 0,3
Fr, 22.06. 23:30 1017 + 0,2
Fr, 22.06. 23:00 1016 + 0,1
Ortszeit Schneehöhe (cm)
Sa, 23.06. 2:00 -
Fr, 22.06. 20:00 -
Fr, 22.06. 14:00 -
Fr, 22.06. 8:00 -
Fr, 22.06. 2:00 -
Do, 21.06. 20:00 -
Do, 21.06. 14:00 -
Do, 21.06. 8:00 -
Ortszeit Schneehöhe (cm)
Sa, 23.06. 2:10 -
Sa, 23.06. 2:00 -
Sa, 23.06. 1:40 -
Sa, 23.06. 1:30 -
Sa, 23.06. 1:20 -
Sa, 23.06. 1:10 -
Sa, 23.06. 1:00 -
Sa, 23.06. 0:30 -
Sa, 23.06. 0:00 -
Fr, 22.06. 23:30 -
Fr, 22.06. 23:00 -
Link zu dieser Seite / Seite empfehlen

Das Wetter in ...